createdAt,value
2023-02-17T00:02:17.665Z,27.02
2023-02-17T00:04:45.718Z,25.30
2023-02-17T00:07:14.088Z,27.45
2023-02-17T00:09:41.905Z,27.83
2023-02-17T00:12:09.936Z,29.30
2023-02-17T00:14:40.543Z,26.38
2023-02-17T00:17:08.701Z,26.83
2023-02-17T00:19:36.487Z,25.80
2023-02-17T00:22:04.624Z,26.75
2023-02-17T00:24:34.357Z,25.80
2023-02-17T00:27:02.381Z,25.65
2023-02-17T00:29:30.205Z,28.58
2023-02-17T00:31:59.542Z,26.95
2023-02-17T00:34:28.379Z,27.92
2023-02-17T00:36:56.413Z,27.63
2023-02-17T00:39:24.401Z,25.27
2023-02-17T00:41:52.477Z,27.38
2023-02-17T00:44:21.509Z,26.90
2023-02-17T00:46:50.043Z,28.85
2023-02-17T00:49:22.002Z,28.30
2023-02-17T00:51:50.178Z,28.88
2023-02-17T00:54:18.453Z,26.02
2023-02-17T00:56:47.011Z,28.45
2023-02-17T00:59:14.877Z,26.35
2023-02-17T01:01:43.049Z,25.48
2023-02-17T01:04:10.974Z,28.02
2023-02-17T01:06:41.770Z,25.48
2023-02-17T01:09:14.589Z,27.15
2023-02-17T01:11:43.598Z,27.27
2023-02-17T01:14:14.302Z,26.35
2023-02-17T01:16:45.795Z,26.75
2023-02-17T01:19:15.198Z,28.45
2023-02-17T01:21:44.791Z,27.05
2023-02-17T01:24:13.566Z,28.38
2023-02-17T01:26:41.944Z,28.05
2023-02-17T01:29:10.132Z,25.90
2023-02-17T01:31:38.560Z,28.20
2023-02-17T01:34:06.424Z,28.13
2023-02-17T01:36:34.621Z,26.95
2023-02-17T01:39:04.111Z,27.92
2023-02-17T01:41:31.930Z,25.52
2023-02-17T01:44:16.554Z,28.13
2023-02-17T01:46:45.672Z,27.38
2023-02-17T01:49:22.321Z,29.95
2023-02-17T01:51:53.995Z,27.50
2023-02-17T01:54:28.032Z,25.98
2023-02-17T01:56:58.630Z,26.88
2023-02-17T01:59:26.687Z,27.25
2023-02-17T02:01:58.132Z,26.00
2023-02-17T02:04:30.185Z,28.13
2023-02-17T02:06:58.335Z,26.00
2023-02-17T02:09:32.357Z,26.13
2023-02-17T02:12:00.930Z,25.15
2023-02-17T02:14:29.692Z,22.20
2023-02-17T02:17:09.807Z,23.58
2023-02-17T02:20:02.672Z,25.73
2023-02-17T02:22:45.475Z,25.48
2023-02-17T02:25:33.728Z,27.27
2023-02-17T02:28:17.240Z,25.00
2023-02-17T02:31:08.309Z,24.83
2023-02-17T02:33:43.104Z,24.90
2023-02-17T02:36:14.631Z,23.48
2023-02-17T02:38:46.785Z,26.77
2023-02-17T02:41:18.921Z,24.95
2023-02-17T02:43:46.830Z,24.67
2023-02-17T02:46:14.809Z,24.52
2023-02-17T02:48:45.076Z,23.95
2023-02-17T02:51:29.931Z,25.33
2023-02-17T02:54:25.560Z,23.58
2023-02-17T02:57:07.577Z,21.40
2023-02-17T02:59:44.890Z,23.65
2023-02-17T03:02:19.295Z,22.45
2023-02-17T03:04:55.627Z,21.88
2023-02-17T03:07:28.458Z,20.15
2023-02-17T03:09:59.103Z,21.02
2023-02-17T03:12:28.764Z,20.88
2023-02-17T03:15:00.771Z,22.67
2023-02-17T03:17:31.844Z,23.02
2023-02-17T03:20:02.313Z,22.58
2023-02-17T03:22:35.084Z,21.98
2023-02-17T03:25:03.090Z,21.00
2023-02-17T03:27:31.268Z,21.75
2023-02-17T03:29:59.372Z,20.70
2023-02-17T03:32:27.302Z,22.27
2023-02-17T03:34:55.340Z,21.33
2023-02-17T03:37:24.713Z,20.58
2023-02-17T03:39:52.498Z,21.25
2023-02-17T03:42:20.976Z,20.42
2023-02-17T03:44:48.854Z,19.60
2023-02-17T03:47:16.646Z,18.60
2023-02-17T03:49:44.444Z,21.48
2023-02-17T03:52:12.241Z,19.48
2023-02-17T03:54:41.460Z,19.50
2023-02-17T03:57:09.294Z,19.10
2023-02-17T03:59:37.551Z,20.83
2023-02-17T04:02:05.684Z,21.45
2023-02-17T04:04:33.519Z,20.05
2023-02-17T04:07:01.341Z,19.98
2023-02-17T04:09:29.151Z,19.10
2023-02-17T04:11:58.466Z,17.42
2023-02-17T04:14:26.355Z,19.23
2023-02-17T04:16:54.452Z,20.60
2023-02-17T04:19:22.283Z,19.25
2023-02-17T04:21:50.370Z,19.33
2023-02-17T04:24:18.199Z,19.30
2023-02-17T04:26:45.966Z,17.20
2023-02-17T04:29:15.424Z,18.20
2023-02-17T04:31:43.348Z,18.58
2023-02-17T04:34:11.279Z,20.35
2023-02-17T04:36:39.278Z,17.65
2023-02-17T04:39:07.396Z,17.58
2023-02-17T04:41:35.273Z,18.35
2023-02-17T04:44:03.129Z,18.55
2023-02-17T04:46:32.418Z,19.17
2023-02-17T04:49:00.506Z,18.20
2023-02-17T04:51:28.378Z,19.75
2023-02-17T04:53:56.246Z,19.13
2023-02-17T04:56:25.054Z,19.48
2023-02-17T04:58:53.219Z,17.15
2023-02-17T05:01:21.081Z,17.70
2023-02-17T05:03:50.225Z,17.67
2023-02-17T05:06:18.055Z,17.60
2023-02-17T05:08:47.953Z,18.83
2023-02-17T05:11:16.020Z,15.18
2023-02-17T05:13:43.926Z,18.25
2023-02-17T05:16:11.910Z,19.67
2023-02-17T05:18:39.719Z,19.50
2023-02-17T05:21:09.154Z,17.13
2023-02-17T05:23:41.018Z,17.38
2023-02-17T05:26:09.589Z,18.00
2023-02-17T05:28:38.372Z,18.05
2023-02-17T05:31:07.203Z,18.38
2023-02-17T05:33:35.610Z,17.75
2023-02-17T05:36:04.709Z,17.55
2023-02-17T05:38:34.692Z,18.00
2023-02-17T05:41:02.594Z,16.65
2023-02-17T05:43:32.133Z,16.50
2023-02-17T05:46:03.825Z,16.88
2023-02-17T05:48:32.157Z,18.45
2023-02-17T05:51:00.124Z,15.93
2023-02-17T05:53:28.199Z,17.40
2023-02-17T05:55:57.472Z,15.63
2023-02-17T05:58:25.439Z,16.38
2023-02-17T06:00:53.583Z,16.92
2023-02-17T06:03:21.590Z,17.33
2023-02-17T06:05:52.975Z,15.82
2023-02-17T06:08:20.995Z,16.73
2023-02-17T06:10:49.062Z,15.20
2023-02-17T06:13:18.546Z,13.80
2023-02-17T06:15:46.822Z,14.15
2023-02-17T06:18:15.111Z,15.40
2023-02-17T06:20:43.383Z,15.25
2023-02-17T06:23:11.592Z,13.25
2023-02-17T06:25:39.749Z,14.23
2023-02-17T06:28:07.976Z,14.68
2023-02-17T06:30:37.306Z,14.57
2023-02-17T06:33:05.730Z,13.88
2023-02-17T06:35:33.686Z,15.45
2023-02-17T06:38:01.860Z,12.85
2023-02-17T06:40:29.720Z,14.43
2023-02-17T06:42:57.784Z,14.80
2023-02-17T06:45:26.098Z,15.90
2023-02-17T06:47:55.250Z,14.30
2023-02-17T06:50:23.053Z,13.32
2023-02-17T06:52:51.420Z,14.13
2023-02-17T06:55:19.524Z,14.80
2023-02-17T06:57:47.468Z,14.65
2023-02-17T07:00:16.094Z,13.52
2023-02-17T07:02:43.987Z,14.95
2023-02-17T07:05:13.327Z,15.25
2023-02-17T07:07:41.219Z,13.70
2023-02-17T07:10:09.933Z,14.63
2023-02-17T07:12:38.047Z,14.05
2023-02-17T07:15:06.918Z,14.75
2023-02-17T07:17:35.804Z,15.50
2023-02-17T07:20:03.888Z,16.38
2023-02-17T07:22:33.258Z,15.85
2023-02-17T07:25:01.359Z,14.98
2023-02-17T07:27:29.508Z,14.70
2023-02-17T07:29:57.472Z,16.05
2023-02-17T07:32:25.390Z,14.65
2023-02-17T07:34:53.618Z,14.15
2023-02-17T07:37:21.959Z,13.93
2023-02-17T07:39:52.556Z,13.93
2023-02-17T07:42:20.702Z,15.70
2023-02-17T07:44:49.133Z,15.70
2023-02-17T07:47:17.293Z,15.40
2023-02-17T07:49:45.341Z,16.85
2023-02-17T07:52:18.695Z,15.52
2023-02-17T07:54:46.763Z,14.32
2023-02-17T07:57:16.507Z,14.90
2023-02-17T07:59:44.464Z,16.13
2023-02-17T08:02:12.988Z,15.45
2023-02-17T08:04:41.390Z,16.25
2023-02-17T08:07:09.508Z,14.10
2023-02-17T08:09:55.253Z,14.60
2023-02-17T08:12:41.918Z,14.23
2023-02-17T08:15:11.790Z,15.75
2023-02-17T08:17:40.236Z,14.43
2023-02-17T08:20:09.479Z,14.50
2023-02-17T08:22:37.613Z,15.43
2023-02-17T08:25:06.769Z,14.38
2023-02-17T08:27:36.532Z,12.40
2023-02-17T08:30:05.200Z,15.38
2023-02-17T08:32:33.243Z,15.23
2023-02-17T08:35:01.719Z,15.20
2023-02-17T08:37:30.137Z,14.73
2023-02-17T08:39:58.956Z,13.75
2023-02-17T08:42:27.160Z,15.00
2023-02-17T08:44:56.632Z,14.73
2023-02-17T08:47:24.597Z,14.73
2023-02-17T08:49:52.556Z,14.50
2023-02-17T08:52:20.442Z,14.10
2023-02-17T08:54:50.382Z,16.05
2023-02-17T08:57:21.604Z,15.15
2023-02-17T08:59:49.640Z,15.75
2023-02-17T09:02:19.116Z,13.70
2023-02-17T09:04:47.781Z,14.88
2023-02-17T09:07:16.633Z,15.07
2023-02-17T09:09:44.982Z,15.35
2023-02-17T09:12:13.320Z,14.55
2023-02-17T09:14:41.214Z,14.38
2023-02-17T09:17:09.494Z,14.82
2023-02-17T09:19:41.953Z,13.15
2023-02-17T09:22:13.559Z,13.98
2023-02-17T09:24:46.468Z,13.98
2023-02-17T09:27:14.776Z,15.38
2023-02-17T09:29:42.875Z,14.95
2023-02-17T09:32:11.245Z,14.48
2023-02-17T09:34:42.128Z,14.25
2023-02-17T09:37:12.117Z,14.60
2023-02-17T09:39:40.014Z,15.77
2023-02-17T09:42:08.041Z,15.60
2023-02-17T09:44:42.412Z,14.25
2023-02-17T09:47:17.297Z,16.08
2023-02-17T09:49:49.612Z,14.88
2023-02-17T09:52:23.555Z,16.05
2023-02-17T09:55:00.581Z,15.48
2023-02-17T09:57:32.417Z,14.90
2023-02-17T10:00:05.440Z,13.48
2023-02-17T10:02:36.601Z,15.02
2023-02-17T10:05:09.992Z,13.07
2023-02-17T10:07:42.981Z,14.65
2023-02-17T10:10:16.796Z,14.85
2023-02-17T10:12:49.990Z,13.60
2023-02-17T10:15:22.032Z,14.57
2023-02-17T10:17:56.428Z,13.30
2023-02-17T10:20:32.338Z,13.07
2023-02-17T10:23:08.187Z,15.05
2023-02-17T10:25:52.231Z,12.75
2023-02-17T10:28:28.977Z,13.45
2023-02-17T10:31:03.066Z,12.40
2023-02-17T10:33:36.397Z,13.77
2023-02-17T10:36:13.017Z,12.65
2023-02-17T10:38:50.327Z,13.38
2023-02-17T10:41:23.811Z,11.82
2023-02-17T10:43:52.680Z,13.38
2023-02-17T10:46:27.457Z,11.73
2023-02-17T10:48:57.400Z,11.63
2023-02-17T10:51:30.990Z,11.95
2023-02-17T10:54:05.385Z,11.75
2023-02-17T10:56:40.110Z,10.55
2023-02-17T10:59:15.581Z,12.73
2023-02-17T11:01:44.924Z,11.48
2023-02-17T11:04:24.115Z,11.20
2023-02-17T11:06:56.185Z,12.45
2023-02-17T11:09:29.787Z,11.77
2023-02-17T11:12:01.694Z,15.15
2023-02-17T11:14:32.396Z,18.15
2023-02-17T11:17:02.804Z,14.55
2023-02-17T11:19:34.324Z,15.98
2023-02-17T11:22:07.782Z,14.88
2023-02-17T11:24:38.794Z,13.93
2023-02-17T11:27:10.638Z,15.27
2023-02-17T11:29:38.961Z,14.70
2023-02-17T11:32:09.313Z,15.55
2023-02-17T11:34:39.416Z,14.18
2023-02-17T11:37:22.552Z,15.07
2023-02-17T11:39:53.365Z,14.57
2023-02-17T11:42:25.347Z,11.65
2023-02-17T11:44:55.733Z,14.13
2023-02-17T11:47:36.199Z,12.93
2023-02-17T11:50:40.402Z,14.80
2023-02-17T11:53:30.677Z,14.48
2023-02-17T11:56:15.241Z,16.10
2023-02-17T11:58:54.720Z,16.33
2023-02-17T12:01:40.919Z,16.58
2023-02-17T12:04:26.259Z,18.58
2023-02-17T12:07:10.989Z,18.40
2023-02-17T12:09:49.734Z,18.73
2023-02-17T12:12:29.470Z,15.30
2023-02-17T12:15:09.273Z,14.48
2023-02-17T12:17:47.742Z,14.07
2023-02-17T12:20:35.107Z,16.10
2023-02-17T12:23:18.074Z,14.55
2023-02-17T12:25:57.476Z,15.60
2023-02-17T12:28:42.629Z,15.43
2023-02-17T12:31:22.664Z,15.52
2023-02-17T12:33:59.364Z,15.40
2023-02-17T12:36:34.411Z,14.43
2023-02-17T12:39:11.980Z,13.57
2023-02-17T12:41:45.554Z,14.77
2023-02-17T12:44:18.973Z,14.18
2023-02-17T12:46:54.123Z,14.13
2023-02-17T12:49:28.643Z,14.93
2023-02-17T12:52:02.728Z,14.70
2023-02-17T12:54:35.212Z,18.63
2023-02-17T12:57:13.818Z,13.68
2023-02-17T12:59:44.097Z,15.18
2023-02-17T13:02:16.243Z,12.32
2023-02-17T13:04:46.110Z,14.15
2023-02-17T13:07:34.869Z,18.00
2023-02-17T13:10:10.705Z,14.52
2023-02-17T13:12:48.260Z,14.13
2023-02-17T13:15:48.879Z,14.18
2023-02-17T13:18:30.534Z,12.75
2023-02-17T13:21:01.381Z,12.80
2023-02-17T13:23:36.057Z,14.57
2023-02-17T13:26:26.157Z,14.32
2023-02-17T13:29:08.754Z,15.40
2023-02-17T13:31:48.574Z,14.07
2023-02-17T13:34:36.977Z,13.10
2023-02-17T13:37:19.035Z,12.90
2023-02-17T13:39:47.488Z,13.00
2023-02-17T13:42:36.376Z,12.88
2023-02-17T13:45:19.181Z,12.77
2023-02-17T13:47:48.918Z,13.77
2023-02-17T13:50:33.767Z,14.95
2023-02-17T13:53:03.598Z,13.75
2023-02-17T13:55:31.950Z,14.77
2023-02-17T13:58:04.187Z,14.48
2023-02-17T14:00:33.915Z,15.85
2023-02-17T14:03:15.233Z,13.95
2023-02-17T14:05:46.274Z,16.38
2023-02-17T14:08:19.494Z,14.85
2023-02-17T14:10:48.119Z,15.85
2023-02-17T14:13:16.836Z,17.38
2023-02-17T14:15:55.097Z,18.30
2023-02-17T14:18:32.355Z,17.98
2023-02-17T14:21:06.776Z,18.13
2023-02-17T14:23:48.369Z,20.27
2023-02-17T14:26:28.603Z,20.98
2023-02-17T14:28:58.271Z,19.60
2023-02-17T14:31:28.674Z,22.13
2023-02-17T14:33:59.643Z,21.67
2023-02-17T14:36:31.731Z,20.50
2023-02-17T14:39:00.571Z,18.70
2023-02-17T14:41:29.461Z,20.65
2023-02-17T14:43:58.725Z,21.15
2023-02-17T14:46:28.551Z,20.83
2023-02-17T14:48:56.803Z,21.02
2023-02-17T14:51:27.367Z,21.90
2023-02-17T14:53:55.445Z,20.95
2023-02-17T14:56:27.716Z,22.75
2023-02-17T14:58:57.067Z,21.67
2023-02-17T15:01:27.281Z,21.58
2023-02-17T15:03:55.740Z,19.65
2023-02-17T15:06:29.352Z,19.77
2023-02-17T15:09:01.441Z,19.23
2023-02-17T15:11:34.475Z,17.90
2023-02-17T15:14:03.568Z,19.25
2023-02-17T15:16:33.375Z,17.95
2023-02-17T15:19:01.824Z,18.13
2023-02-17T15:21:32.207Z,17.33
2023-02-17T15:24:02.171Z,15.65
2023-02-17T15:26:31.965Z,15.63
2023-02-17T15:29:00.245Z,14.98
2023-02-17T15:31:31.540Z,14.32
2023-02-17T15:34:03.450Z,15.32
2023-02-17T15:36:32.480Z,14.40
2023-02-17T15:39:00.644Z,14.15
2023-02-17T15:41:31.531Z,15.23
2023-02-17T15:43:59.886Z,13.35
2023-02-17T15:46:32.664Z,12.93
2023-02-17T15:49:02.504Z,12.80
2023-02-17T15:51:30.878Z,12.40
2023-02-17T15:53:59.217Z,12.20
2023-02-17T15:56:32.306Z,11.02
2023-02-17T15:59:05.685Z,11.00
2023-02-17T16:01:35.636Z,9.77
2023-02-17T16:04:05.727Z,10.77
2023-02-17T16:06:33.724Z,10.38
2023-02-17T16:09:01.766Z,8.65
2023-02-17T16:11:30.399Z,7.78
2023-02-17T16:13:58.699Z,8.27
2023-02-17T16:16:32.403Z,9.18
2023-02-17T16:19:01.265Z,8.32
2023-02-17T16:21:30.724Z,9.40
2023-02-17T16:24:00.364Z,9.48
2023-02-17T16:26:34.496Z,7.72
2023-02-17T16:29:03.520Z,8.73
2023-02-17T16:31:35.792Z,8.25
2023-02-17T16:34:04.241Z,8.88
2023-02-17T16:36:36.572Z,7.32
2023-02-17T16:39:12.658Z,7.25
2023-02-17T16:41:40.828Z,8.00
2023-02-17T16:44:09.563Z,7.22
2023-02-17T16:46:38.497Z,8.32
2023-02-17T16:49:19.863Z,7.93
2023-02-17T16:51:49.398Z,12.50
2023-02-17T16:54:21.060Z,8.77
2023-02-17T16:56:53.134Z,7.72
2023-02-17T16:59:24.307Z,8.13
2023-02-17T17:01:55.668Z,8.02
2023-02-17T17:04:24.793Z,6.80
2023-02-17T17:06:54.667Z,10.43
2023-02-17T17:09:25.386Z,7.50
2023-02-17T17:11:57.791Z,7.32
2023-02-17T17:14:26.152Z,7.50
2023-02-17T17:16:58.779Z,8.07
2023-02-17T17:19:29.172Z,7.00
2023-02-17T17:22:06.243Z,6.40
2023-02-17T17:24:34.788Z,7.75
2023-02-17T17:27:03.668Z,7.60
2023-02-17T17:29:33.228Z,7.82
2023-02-17T17:32:01.986Z,7.15
2023-02-17T17:34:30.328Z,7.47
2023-02-17T17:37:06.308Z,7.43
2023-02-17T17:39:34.719Z,7.43
2023-02-17T17:42:03.257Z,7.30
2023-02-17T17:44:31.650Z,8.10
2023-02-17T17:46:59.891Z,6.60
2023-02-17T17:49:28.399Z,7.82
2023-02-17T17:51:57.713Z,7.15
2023-02-17T17:54:29.521Z,6.63
2023-02-17T17:56:58.108Z,7.18
2023-02-17T17:59:26.392Z,7.30
2023-02-17T18:01:54.957Z,8.43
2023-02-17T18:04:23.518Z,8.82
2023-02-17T18:07:09.564Z,10.48
2023-02-17T18:09:40.686Z,12.50
2023-02-17T18:12:12.349Z,11.52
2023-02-17T18:14:43.800Z,9.75
2023-02-17T18:17:15.285Z,9.38
2023-02-17T18:19:44.513Z,14.18
2023-02-17T18:22:13.484Z,10.80
2023-02-17T18:24:45.685Z,12.00
2023-02-17T18:27:14.072Z,12.75
2023-02-17T18:29:42.753Z,16.42
2023-02-17T18:32:11.294Z,12.68
2023-02-17T18:34:39.694Z,12.35
2023-02-17T18:37:08.215Z,9.98
2023-02-17T18:39:36.767Z,10.57
2023-02-17T18:42:07.330Z,10.73
2023-02-17T18:44:36.025Z,11.20
2023-02-17T18:47:04.799Z,11.43
2023-02-17T18:49:34.946Z,10.57
2023-02-17T19:03:08.930Z,9.40
2023-02-17T20:50:12.821Z,7.20
2023-02-17T20:58:53.870Z,7.13
2023-02-17T21:26:35.952Z,7.03
2023-02-17T21:29:32.999Z,10.48
2023-02-17T21:32:47.516Z,10.20
2023-02-17T21:44:16.766Z,10.98
2023-02-17T21:46:48.368Z,7.55
2023-02-17T21:49:16.676Z,10.50
2023-02-17T21:51:45.670Z,9.68
2023-02-17T21:54:13.931Z,11.02
2023-02-17T21:56:42.166Z,8.75
2023-02-17T21:59:11.812Z,8.55
2023-02-17T22:01:40.030Z,7.22
2023-02-17T22:04:08.334Z,7.63
2023-02-17T22:06:39.155Z,6.57
2023-02-17T22:09:09.132Z,5.25
2023-02-17T22:11:40.667Z,9.27
2023-02-17T22:14:14.077Z,10.27
2023-02-17T22:16:42.432Z,9.75
2023-02-17T22:19:14.981Z,9.13
2023-02-17T22:21:44.737Z,9.60
2023-02-17T22:24:13.685Z,9.98
2023-02-17T22:26:48.254Z,9.43
2023-02-17T22:29:17.841Z,11.77
2023-02-17T22:31:46.395Z,8.32
2023-02-17T22:34:15.420Z,10.63
2023-02-17T22:36:43.720Z,10.75
2023-02-17T22:39:11.998Z,8.30
2023-02-17T22:41:40.813Z,8.13
2023-02-17T22:44:09.277Z,6.30
2023-02-17T22:46:39.321Z,9.45
2023-02-17T22:49:07.362Z,10.93
2023-02-17T22:51:38.383Z,9.55
2023-02-17T22:54:08.143Z,12.80
2023-02-17T22:56:36.633Z,9.80
2023-02-17T22:59:05.561Z,5.78
2023-02-17T23:01:35.420Z,10.45
2023-02-17T23:04:05.588Z,10.27
2023-02-17T23:06:36.020Z,9.32
2023-02-17T23:09:05.260Z,6.80
2023-02-17T23:11:54.973Z,10.32
2023-02-17T23:14:26.018Z,11.82
2023-02-17T23:16:58.836Z,11.60
2023-02-17T23:19:29.938Z,7.15
2023-02-17T23:22:00.646Z,9.95
2023-02-17T23:24:28.959Z,8.45
2023-02-17T23:26:58.897Z,9.82
2023-02-17T23:29:27.301Z,10.90
2023-02-17T23:31:55.711Z,7.10
2023-02-17T23:34:24.372Z,7.45
2023-02-17T23:36:53.984Z,9.68
2023-02-17T23:39:22.125Z,7.53
2023-02-17T23:41:50.246Z,8.27
2023-02-17T23:44:19.380Z,8.25
2023-02-17T23:46:47.857Z,7.75
2023-02-17T23:49:17.955Z,8.15
2023-02-17T23:51:47.242Z,8.57
2023-02-17T23:54:16.902Z,7.15
2023-02-17T23:56:45.163Z,6.35
2023-02-17T23:59:13.814Z,5.88
